Time;durP1;ratioP1;P1;durP2;ratioP2;P2;SDS_P1;SDS_P2;PMS_P1;PMS_P2;Temp;Humidity;BMP_temperature;BMP_pressure;BME280_temperature;BME280_humidity;BME280_pressure;Samples;Min_cycle;Max_cycle;Signal;HPM_P1;HPM_P2
2023/02/03 00:01:31;;;;;;;2.03;1.25;;;;;;;13.84;46.16;100791.75;5051548;28;20500;-60
2023/02/03 00:03:59;;;;;;;3.45;1.30;;;;;;;13.80;46.37;100798.25;5051768;28;20064;-60
2023/02/03 00:06:30;;;;;;;2.75;1.50;;;;;;;13.78;46.28;100797.50;5051604;28;20052;-59
2023/02/03 00:09:00;;;;;;;4.18;1.67;;;;;;;13.77;46.37;100801.16;5051506;28;20505;-59
2023/02/03 00:11:30;;;;;;;2.67;1.27;;;;;;;13.72;46.28;100798.78;5051509;28;20048;-58
2023/02/03 00:13:58;;;;;;;2.70;1.27;;;;;;;13.69;46.17;100804.31;5051388;28;20573;-59
2023/02/03 00:16:26;;;;;;;3.13;1.38;;;;;;;13.66;46.38;100800.03;5051632;28;20045;-58
2023/02/03 00:18:55;;;;;;;3.45;1.48;;;;;;;13.63;46.19;100800.22;5051421;28;20057;-59
2023/02/03 00:21:23;;;;;;;2.83;1.40;;;;;;;13.59;46.19;100806.72;5051542;28;20125;-59
2023/02/03 00:23:54;;;;;;;4.68;1.70;;;;;;;13.57;46.29;100816.69;5051275;28;20573;-59
2023/02/03 00:26:22;;;;;;;3.20;1.50;;;;;;;13.54;46.23;100818.72;5051549;28;20098;-58
2023/02/03 00:28:50;;;;;;;2.50;1.35;;;;;;;13.51;46.42;100827.81;5051379;28;20118;-59
2023/02/03 00:31:20;;;;;;;2.90;1.30;;;;;;;13.45;46.17;100822.84;5051405;28;20071;-59
2023/02/03 00:33:53;;;;;;;3.30;1.45;;;;;;;13.43;46.34;100827.44;5051218;28;20049;-59
2023/02/03 00:36:22;;;;;;;3.28;1.50;;;;;;;13.40;46.49;100830.28;5051244;28;20049;-59
2023/02/03 00:38:50;;;;;;;3.15;1.42;;;;;;;13.38;46.28;100841.09;5051261;28;20076;-59
2023/02/03 00:41:21;;;;;;;3.00;1.30;;;;;;;13.36;46.24;100844.84;5051145;28;20051;-58
2023/02/03 00:43:49;;;;;;;3.72;1.50;;;;;;;13.32;46.38;100848.69;5051257;28;20111;-59
2023/02/03 00:46:17;;;;;;;2.00;1.05;;;;;;;13.30;46.50;100850.56;5051258;28;20055;-59
2023/02/03 00:48:46;;;;;;;2.70;1.40;;;;;;;13.28;46.33;100858.72;5051175;28;20061;-58
2023/02/03 00:51:14;;;;;;;3.45;1.40;;;;;;;13.25;46.32;100863.41;5051208;28;20563;-59
2023/02/03 00:53:42;;;;;;;3.15;1.55;;;;;;;13.23;46.29;100868.00;5051203;28;20071;-59
2023/02/03 00:56:11;;;;;;;3.08;1.40;;;;;;;13.20;46.45;100860.13;5051107;28;20099;-60
2023/02/03 00:58:41;;;;;;;2.90;1.48;;;;;;;13.17;46.48;100862.03;5051123;28;20486;-60
2023/02/03 01:01:10;;;;;;;3.80;1.50;;;;;;;13.15;46.43;100869.31;5053085;28;20430;-60
2023/02/03 01:03:39;;;;;;;2.90;1.30;;;;;;;13.13;46.71;100878.38;5054487;28;20044;-58
2023/02/03 01:06:12;;;;;;;3.83;1.55;;;;;;;13.10;46.43;100883.91;5054682;28;20051;-60
2023/02/03 01:08:41;;;;;;;2.53;1.35;;;;;;;13.02;46.90;100868.31;5054736;28;20435;-58
2023/02/03 01:11:11;;;;;;;3.03;1.52;;;;;;;13.05;46.53;100889.56;5054485;28;20045;-60
2023/02/03 01:13:41;;;;;;;2.42;1.50;;;;;;;13.05;46.44;100888.69;5054307;28;20477;-59
2023/02/03 01:16:10;;;;;;;3.53;1.35;;;;;;;13.01;46.57;100888.00;5054321;28;20091;-60
2023/02/03 01:18:39;;;;;;;3.05;1.63;;;;;;;12.99;46.43;100879.22;5054449;28;20044;-58
2023/02/03 01:21:09;;;;;;;2.88;1.40;;;;;;;12.98;46.33;100892.69;5054474;28;20199;-58
2023/02/03 01:23:38;;;;;;;3.90;1.40;;;;;;;12.94;46.27;100892.03;5054300;28;20059;-58
2023/02/03 01:26:07;;;;;;;3.42;1.50;;;;;;;12.93;46.58;100895.63;5054324;28;20458;-58
2023/02/03 01:28:36;;;;;;;2.10;1.30;;;;;;;12.89;46.38;100897.63;5054040;28;20053;-59
2023/02/03 01:31:14;;;;;;;2.35;1.38;;;;;;;12.88;46.38;100890.56;5054297;28;20048;-58
2023/02/03 01:33:45;;;;;;;2.92;1.35;;;;;;;12.85;46.50;100895.25;5054183;28;20044;-60
2023/02/03 01:36:15;;;;;;;3.20;1.55;;;;;;;12.84;46.35;100893.53;5053893;28;20053;-58
2023/02/03 01:38:44;;;;;;;3.17;1.33;;;;;;;12.82;46.46;100900.75;5053952;28;20108;-58
2023/02/03 01:41:15;;;;;;;2.88;1.13;;;;;;;12.77;46.32;100897.50;5053768;28;20486;-59
2023/02/03 01:43:45;;;;;;;4.28;1.40;;;;;;;12.77;46.32;100911.75;5053858;28;20474;-59
2023/02/03 01:46:25;;;;;;;2.08;1.10;;;;;;;12.73;46.55;100906.66;5053812;28;20052;-58
2023/02/03 01:48:56;;;;;;;2.75;1.23;;;;;;;12.73;46.42;100909.34;5053681;28;20045;-58
2023/02/03 01:51:24;;;;;;;2.50;1.00;;;;;;;12.71;46.15;100917.47;5053612;28;20174;-58
2023/02/03 01:53:53;;;;;;;2.05;1.20;;;;;;;12.70;46.42;100931.81;5053718;28;20457;-59
2023/02/03 01:56:22;;;;;;;2.38;1.23;;;;;;;12.65;46.25;100919.66;5053801;28;20045;-59
2023/02/03 01:58:51;;;;;;;3.13;1.40;;;;;;;12.65;46.41;100931.22;5053640;28;20444;-58
2023/02/03 02:01:20;;;;;;;3.35;1.42;;;;;;;12.59;46.36;100919.03;5053653;28;20129;-58
2023/02/03 02:03:53;;;;;;;3.20;1.25;;;;;;;12.58;46.38;100920.00;5053785;28;20056;-58
2023/02/03 02:06:22;;;;;;;3.58;1.40;;;;;;;12.58;46.22;100928.03;5053359;28;20044;-59
2023/02/03 02:08:52;;;;;;;3.55;1.35;;;;;;;12.55;46.06;100928.22;5053383;28;20056;-58
2023/02/03 02:11:21;;;;;;;3.15;1.58;;;;;;;12.52;46.25;100925.69;5053196;28;20047;-59
2023/02/03 02:13:52;;;;;;;2.50;1.20;;;;;;;12.53;46.42;100929.22;5053181;28;20051;-58
2023/02/03 02:16:33;;;;;;;3.67;1.42;;;;;;;12.49;46.38;100922.34;5053449;28;20048;-59
2023/02/03 02:19:21;;;;;;;2.80;1.30;;;;;;;12.48;46.23;100921.47;5053090;28;20045;-59
2023/02/03 02:22:05;;;;;;;1.77;0.98;;;;;;;12.46;46.55;100923.38;5053051;28;20041;-60
2023/02/03 02:24:57;;;;;;;;;;;;;;;12.45;46.41;100918.09;5053671;28;20053;-60
2023/02/03 02:28:03;;;;;;;2.28;1.10;;;;;;;12.43;46.23;100920.88;5014863;28;19928;-60
2023/02/03 02:31:13;;;;;;;2.33;1.08;;;;;;;12.39;46.46;100916.66;5031840;28;20065;-59
2023/02/03 02:33:52;;;;;;;1.95;1.00;;;;;;;12.40;46.28;100917.53;5006728;28;20068;-59
2023/02/03 02:36:30;;;;;;;1.92;1.13;;;;;;;12.37;46.36;100918.56;5052656;28;20426;-60
2023/02/03 02:39:09;;;;;;;2.92;1.40;;;;;;;12.35;46.09;100924.94;5052790;28;20076;-60
2023/02/03 02:41:42;;;;;;;2.53;1.30;;;;;;;12.32;46.09;100920.63;5052732;28;20125;-58
2023/02/03 02:44:18;;;;;;;3.35;1.33;;;;;;;12.30;46.06;100919.84;5052686;28;20044;-60
2023/02/03 02:46:51;;;;;;;2.28;1.40;;;;;;;12.28;45.95;100929.78;5052529;28;20125;-60
2023/02/03 02:49:25;;;;;;;3.13;1.60;;;;;;;12.23;46.16;100927.34;5052519;28;20102;-60
2023/02/03 02:51:55;;;;;;;2.33;1.38;;;;;;;12.23;46.03;100931.84;5052524;28;20163;-60
2023/02/03 02:54:27;;;;;;;2.43;1.30;;;;;;;12.21;45.99;100936.41;5052321;28;20049;-59
2023/02/03 02:56:59;;;;;;;3.70;1.55;;;;;;;12.20;45.56;100942.72;5052651;28;20079;-59
2023/02/03 02:59:28;;;;;;;2.17;1.23;;;;;;;12.18;45.82;100939.28;5052301;28;20053;-58
2023/02/03 03:01:56;;;;;;;3.25;1.50;;;;;;;12.11;45.97;100938.75;5052544;28;20087;-59
2023/02/03 03:04:28;;;;;;;2.67;1.30;;;;;;;12.14;45.75;100948.41;5052380;28;20075;-58
2023/02/03 03:07:01;;;;;;;2.58;1.52;;;;;;;12.12;45.95;100950.31;5052307;28;20132;-60
2023/02/03 03:09:34;;;;;;;2.17;1.17;;;;;;;12.10;46.01;100942.38;5052514;28;20642;-59
2023/02/03 03:12:07;;;;;;;3.13;1.33;;;;;;;12.09;46.26;100942.47;5052247;28;20401;-59
2023/02/03 03:14:40;;;;;;;3.35;1.40;;;;;;;12.07;46.20;100958.59;5052255;28;20049;-60
2023/02/03 03:17:12;;;;;;;2.72;1.20;;;;;;;12.04;46.10;100951.59;5052168;28;20128;-59
2023/02/03 03:19:46;;;;;;;1.63;1.08;;;;;;;11.99;46.34;100940.28;5052253;28;20048;-62
2023/02/03 03:22:16;;;;;;;2.25;1.20;;;;;;;12.02;46.71;100940.13;5052152;28;20049;-60
2023/02/03 03:24:48;;;;;;;2.15;1.10;;;;;;;12.06;46.69;100937.25;5051686;28;20059;-59
2023/02/03 03:27:22;;;;;;;2.38;1.05;;;;;;;12.15;47.00;100942.09;5052034;28;20071;-59
2023/02/03 03:29:54;;;;;;;1.88;1.10;;;;;;;12.22;47.23;100930.13;5051928;28;20406;-59
2023/02/03 03:32:23;;;;;;;2.83;1.30;;;;;;;12.36;47.35;100937.38;5052034;28;20094;-59
2023/02/03 03:34:52;;;;;;;2.20;1.30;;;;;;;12.45;47.36;100924.34;5051809;28;20752;-59
2023/02/03 03:37:28;;;;;;;2.55;0.95;;;;;;;12.56;47.14;100924.59;5051747;28;20501;-59
2023/02/03 03:39:58;;;;;;;3.10;1.40;;;;;;;12.68;46.95;100919.47;5051807;28;20070;-59
2023/02/03 03:42:32;;;;;;;2.22;1.10;;;;;;;12.76;47.02;100917.22;5051770;28;20045;-59
2023/02/03 03:45:05;;;;;;;2.15;1.13;;;;;;;12.82;46.93;100922.19;5051847;28;20064;-60
2023/02/03 03:47:35;;;;;;;;;;;;;;;12.85;46.96;100920.22;5052180;28;20075;-59
2023/02/03 03:50:10;;;;;;;2.28;1.02;;;;;;;12.87;46.84;100917.44;5051765;28;19921;-59
2023/02/03 03:52:40;;;;;;;2.55;1.20;;;;;;;12.88;46.68;100920.00;5051635;28;20049;-59
2023/02/03 03:55:11;;;;;;;2.13;1.10;;;;;;;12.87;46.61;100906.72;5051661;28;20128;-59
2023/02/03 03:57:43;;;;;;;2.85;1.30;;;;;;;12.88;46.68;100914.66;5051576;28;20107;-59
2023/02/03 04:00:17;;;;;;;2.95;1.15;;;;;;;12.83;46.67;100907.84;5051711;28;20049;-62
2023/02/03 04:02:50;;;;;;;2.35;1.08;;;;;;;12.84;46.70;100907.78;5051540;28;20064;-60
2023/02/03 04:05:21;;;;;;;2.45;1.27;;;;;;;12.84;46.70;100904.25;5051442;28;20564;-58
2023/02/03 04:07:49;;;;;;;2.88;1.30;;;;;;;12.79;46.47;100893.78;5051608;28;20049;-60
2023/02/03 04:10:34;;;;;;;2.35;1.30;;;;;;;12.80;46.79;100900.88;5051585;28;20073;-58
2023/02/03 04:13:03;;;;;;;1.95;1.15;;;;;;;12.77;46.82;100893.03;5051465;28;20386;-60
2023/02/03 04:15:32;;;;;;;2.17;1.17;;;;;;;12.74;46.71;100900.34;5051440;28;20076;-59
2023/02/03 04:18:01;;;;;;;2.38;1.20;;;;;;;12.70;46.70;100898.81;5051300;28;20532;-59
2023/02/03 04:20:32;;;;;;;2.13;1.20;;;;;;;12.70;46.80;100899.69;5051444;28;20425;-59
2023/02/03 04:23:03;;;;;;;2.08;1.35;;;;;;;12.66;46.69;100889.25;5051314;28;20053;-59
2023/02/03 04:25:31;;;;;;;2.38;1.10;;;;;;;12.62;46.77;100883.19;5051376;28;20045;-59
2023/02/03 04:28:00;;;;;;;1.80;1.05;;;;;;;12.61;46.86;100894.88;5051260;28;20048;-59
2023/02/03 04:30:28;;;;;;;1.90;1.13;;;;;;;12.59;46.76;100886.94;5051238;28;20041;-59
2023/02/03 04:32:57;;;;;;;2.10;1.20;;;;;;;12.53;46.86;100889.94;5051291;28;20454;-60
2023/02/03 04:35:25;;;;;;;2.78;1.25;;;;;;;12.53;46.77;100891.78;5052004;28;20040;-61
2023/02/03 04:37:55;;;;;;;2.92;1.23;;;;;;;12.50;47.09;100898.16;5055042;28;20514;-58
2023/02/03 04:40:23;;;;;;;2.70;1.20;;;;;;;12.51;47.11;100897.22;5054986;28;20044;-59
2023/02/03 04:42:52;;;;;;;2.33;1.10;;;;;;;12.56;47.23;100895.16;5054958;28;20048;-58
2023/02/03 04:45:20;;;;;;;2.30;0.95;;;;;;;12.70;47.35;100904.19;5054784;28;20057;-60
2023/02/03 04:47:52;;;;;;;2.47;1.02;;;;;;;12.80;47.27;100905.34;5054805;28;20048;-60
2023/02/03 04:50:22;;;;;;;2.70;1.20;;;;;;;12.88;47.14;100895.06;5054941;28;20106;-60
2023/02/03 04:52:50;;;;;;;2.40;1.13;;;;;;;13.00;47.23;100886.28;5054799;28;20174;-61
2023/02/03 04:55:19;;;;;;;2.13;1.05;;;;;;;13.10;46.88;100881.22;5054714;28;20073;-59
2023/02/03 04:57:47;;;;;;;2.05;1.10;;;;;;;13.17;46.97;100887.94;5054907;28;20045;-59
2023/02/03 05:00:16;;;;;;;2.13;1.13;;;;;;;13.23;46.91;100881.41;5054756;28;20120;-59
2023/02/03 05:02:44;;;;;;;3.30;1.20;;;;;;;13.35;46.84;100880.66;5054617;28;20490;-59
2023/02/03 05:05:12;;;;;;;2.42;1.10;;;;;;;13.46;46.60;100886.19;5054573;28;20095;-61
2023/02/03 05:07:40;;;;;;;2.58;1.20;;;;;;;13.54;46.57;100886.59;5054404;28;20486;-61
2023/02/03 05:10:09;;;;;;;3.22;1.13;;;;;;;13.63;46.38;100891.38;5054459;28;20490;-61
2023/02/03 05:12:39;;;;;;;1.67;0.90;;;;;;;13.72;46.34;100880.06;5054464;28;20477;-60
2023/02/03 05:15:08;;;;;;;1.92;0.98;;;;;;;13.82;46.40;100874.13;5054492;28;20056;-61
2023/02/03 05:17:38;;;;;;;2.83;1.15;;;;;;;13.92;46.34;100892.22;5054310;28;20642;-59
2023/02/03 05:20:07;;;;;;;2.28;0.98;;;;;;;13.99;46.12;100881.91;5054406;28;20072;-59
2023/02/03 05:22:36;;;;;;;2.60;1.13;;;;;;;14.06;46.27;100882.41;5054291;28;20482;-60
2023/02/03 05:25:04;;;;;;;2.60;1.42;;;;;;;14.20;46.18;100888.59;5054138;28;20057;-59
2023/02/03 05:27:32;;;;;;;2.10;1.00;;;;;;;14.29;46.22;100898.75;5054246;28;20041;-60
2023/02/03 05:30:02;;;;;;;1.30;0.95;;;;;;;14.39;46.08;100895.47;5053738;28;20053;-60
2023/02/03 05:32:31;;;;;;;1.33;0.85;;;;;;;14.48;45.96;100889.50;5054137;28;20045;-59
2023/02/03 05:34:59;;;;;;;2.97;1.20;;;;;;;14.57;45.96;100889.75;5053993;28;20056;-60
2023/02/03 05:37:27;;;;;;;2.50;0.90;;;;;;;14.61;45.94;100879.66;5054001;28;20056;-59
2023/02/03 05:41:51;;;;;;;1.95;1.02;;;;;;;14.70;45.85;100897.84;5054720;28;20068;-61
2023/02/03 05:42:47;;;;;;;2.58;1.40;;;;;;;14.72;45.70;100890.53;5054939;28;20053;-60
2023/02/03 05:45:19;;;;;;;2.40;1.20;;;;;;;14.73;45.79;100900.31;5054448;28;20052;-60
2023/02/03 05:47:47;;;;;;;2.88;1.33;;;;;;;14.70;45.62;100897.84;5053375;28;20041;-60
2023/02/03 05:50:15;;;;;;;2.08;1.17;;;;;;;14.72;45.64;100909.34;5053699;28;20051;-59
2023/02/03 05:52:43;;;;;;;2.40;1.40;;;;;;;14.70;45.66;100897.84;5053817;28;20083;-59
2023/02/03 05:55:14;;;;;;;3.47;1.35;;;;;;;14.70;45.67;100899.69;5053701;28;20055;-60
2023/02/03 05:57:42;;;;;;;3.53;1.23;;;;;;;14.66;45.54;100909.75;5053469;28;20137;-59
2023/02/03 06:00:12;;;;;;;2.28;1.10;;;;;;;14.63;45.64;100909.09;5053490;28;20514;-60
2023/02/03 06:02:42;;;;;;;2.42;1.10;;;;;;;14.59;45.63;100906.63;5053434;28;20123;-59
2023/02/03 06:05:10;;;;;;;2.47;1.35;;;;;;;14.54;45.69;100905.19;5053444;28;20473;-59
2023/02/03 06:07:38;;;;;;;2.67;1.20;;;;;;;14.53;45.62;100900.78;5053058;28;20045;-59
2023/02/03 06:10:07;;;;;;;1.88;1.10;;;;;;;14.46;45.65;100896.78;5053254;28;20486;-59
2023/02/03 06:12:37;;;;;;;2.25;1.20;;;;;;;14.44;45.68;100890.63;5053086;28;20127;-60
2023/02/03 06:15:06;;;;;;;2.30;1.02;;;;;;;14.40;45.60;100891.81;5053050;28;20048;-59
2023/02/03 06:17:34;;;;;;;2.03;1.10;;;;;;;14.30;45.46;100881.69;5052824;28;20630;-61
2023/02/03 06:20:05;;;;;;;3.17;1.33;;;;;;;14.32;45.41;100901.22;5052831;28;20409;-59
2023/02/03 06:22:33;;;;;;;2.20;1.30;;;;;;;14.25;45.32;100899.88;5052842;28;20045;-59
2023/02/03 06:25:02;;;;;;;2.53;1.10;;;;;;;14.18;45.37;100909.28;5052743;28;20051;-61
2023/02/03 06:27:30;;;;;;;2.92;1.33;;;;;;;14.13;45.24;100906.06;5052467;28;20510;-59
2023/02/03 06:29:58;;;;;;;2.78;1.33;;;;;;;14.06;45.38;100914.59;5052770;28;20048;-59
2023/02/03 06:32:26;;;;;;;2.97;1.20;;;;;;;14.00;45.42;100922.09;5052768;28;20102;-59
2023/02/03 06:34:54;;;;;;;2.03;0.90;;;;;;;13.96;45.36;100919.69;5052732;28;20401;-59
2023/02/03 06:37:24;;;;;;;2.42;1.10;;;;;;;13.91;45.17;100913.75;5052352;28;20416;-59
2023/02/03 06:39:52;;;;;;;1.77;1.10;;;;;;;13.81;45.07;100904.59;5052625;28;20048;-61
2023/02/03 06:42:20;;;;;;;2.05;1.02;;;;;;;13.82;45.07;100922.38;5052380;28;20045;-59
2023/02/03 06:44:48;;;;;;;1.85;1.30;;;;;;;13.77;45.12;100921.81;5052677;28;20128;-59
2023/02/03 06:47:16;;;;;;;3.03;1.40;;;;;;;13.68;45.10;100916.06;5052475;28;20065;-58
2023/02/03 06:49:45;;;;;;;2.70;1.33;;;;;;;13.67;44.88;100919.69;5052364;28;20111;-59
2023/02/03 06:52:14;;;;;;;1.88;1.17;;;;;;;13.62;44.96;100918.28;5052569;28;20095;-59
2023/02/03 06:54:44;;;;;;;2.80;1.25;;;;;;;13.57;45.09;100918.53;5052225;28;20052;-59
2023/02/03 06:57:12;;;;;;;2.35;1.38;;;;;;;13.52;45.06;100909.94;5052076;28;20482;-60
2023/02/03 06:59:40;;;;;;;3.60;1.30;;;;;;;13.49;44.88;100910.13;5051627;28;20551;-59
2023/02/03 07:02:10;;;;;;;2.20;1.30;;;;;;;13.48;45.16;100912.91;5052197;28;20049;-59
2023/02/03 07:04:38;;;;;;;2.20;1.15;;;;;;;13.46;45.09;100900.44;5052025;28;20073;-61
2023/02/03 07:07:06;;;;;;;3.28;1.33;;;;;;;13.52;45.39;100909.94;5051848;28;20597;-59
2023/02/03 07:09:34;;;;;;;2.30;1.10;;;;;;;13.58;45.33;100909.53;5051704;28;20052;-60
2023/02/03 07:12:04;;;;;;;2.33;1.30;;;;;;;13.67;45.34;100911.66;5051625;28;20472;-61
2023/02/03 07:14:34;;;;;;;2.38;1.08;;;;;;;13.70;45.46;100892.72;5051286;28;20051;-60
2023/02/03 07:17:03;;;;;;;2.90;1.45;;;;;;;13.84;45.40;100904.38;5051131;28;20118;-58
2023/02/03 07:19:31;;;;;;;3.35;1.30;;;;;;;13.93;45.15;100910.03;5051270;28;20045;-59
2023/02/03 07:21:59;;;;;;;2.90;1.40;;;;;;;13.98;45.17;100907.03;5051122;28;20504;-59
2023/02/03 07:24:27;;;;;;;3.28;1.30;;;;;;;14.07;44.96;100897.53;5051138;28;20545;-61
2023/02/03 07:26:55;;;;;;;3.78;1.67;;;;;;;14.15;45.00;100903.28;5051140;28;20444;-60
2023/02/03 07:29:25;;;;;;;2.10;1.05;;;;;;;14.23;44.93;100900.97;5051256;28;20540;-60
2023/02/03 07:31:53;;;;;;;3.75;1.25;;;;;;;14.31;44.68;100904.88;5051409;28;20045;-60
2023/02/03 07:34:22;;;;;;;2.28;1.17;;;;;;;14.42;44.58;100908.66;5051558;28;20040;-60
2023/02/03 07:36:50;;;;;;;2.03;1.13;;;;;;;14.45;44.54;100906.66;5051101;28;20110;-60
2023/02/03 07:39:18;;;;;;;3.05;1.20;;;;;;;14.56;44.43;100914.00;5051246;28;20045;-59
2023/02/03 07:41:46;;;;;;;2.42;1.40;;;;;;;14.62;44.32;100907.38;5051473;28;20056;-60
2023/02/03 07:44:14;;;;;;;3.40;1.30;;;;;;;14.71;44.49;100909.44;5051218;28;20068;-61
2023/02/03 07:46:44;;;;;;;2.33;1.23;;;;;;;14.75;44.50;100909.13;5051280;28;20041;-59
2023/02/03 07:49:13;;;;;;;2.28;1.23;;;;;;;14.86;44.33;100927.19;5051069;28;20106;-59
2023/02/03 07:51:41;;;;;;;2.53;1.30;;;;;;;14.94;44.41;100918.63;5050961;28;20520;-59
2023/02/03 07:54:10;;;;;;;2.38;1.13;;;;;;;15.05;44.25;100927.69;5051434;28;20091;-60
2023/02/03 07:56:38;;;;;;;2.10;1.10;;;;;;;15.12;44.20;100928.13;5051120;28;20057;-59
2023/02/03 07:59:06;;;;;;;1.95;1.10;;;;;;;15.19;44.21;100924.06;5050892;28;20053;-58
2023/02/03 08:01:34;;;;;;;3.65;1.30;;;;;;;15.22;44.12;100923.84;5050858;28;20045;-58
2023/02/03 08:04:04;;;;;;;2.55;1.25;;;;;;;15.28;43.95;100931.50;5051265;28;20048;-59
2023/02/03 08:06:32;;;;;;;2.53;1.20;;;;;;;15.29;43.93;100933.22;5050923;28;20100;-60
2023/02/03 08:09:00;;;;;;;2.13;1.25;;;;;;;15.32;43.65;100927.63;5051224;28;20119;-60
2023/02/03 08:11:29;;;;;;;2.90;1.08;;;;;;;15.29;43.91;100927.84;5055024;28;20049;-57
2023/02/03 08:13:57;;;;;;;2.63;1.30;;;;;;;15.25;43.71;100920.97;5055106;28;20049;-59
2023/02/03 08:16:25;;;;;;;2.08;1.15;;;;;;;15.25;43.64;100925.44;5054978;28;20120;-58
2023/02/03 08:18:53;;;;;;;1.98;0.90;;;;;;;15.21;43.42;100929.31;5054738;28;20137;-59
2023/02/03 08:21:23;;;;;;;1.95;1.17;;;;;;;15.17;43.52;100926.00;5054958;28;20098;-58
2023/02/03 08:23:51;;;;;;;2.72;1.02;;;;;;;15.14;43.56;100934.25;5054711;28;20489;-60
2023/02/03 08:26:19;;;;;;;2.35;1.10;;;;;;;15.10;43.49;100932.75;5054807;28;20049;-60
2023/02/03 08:28:49;;;;;;;2.03;1.15;;;;;;;15.05;43.58;100926.81;5054594;28;20057;-57
2023/02/03 08:31:18;;;;;;;3.28;1.20;;;;;;;14.99;43.43;100928.13;5054667;28;20044;-60
2023/02/03 08:33:46;;;;;;;2.90;1.38;;;;;;;14.95;43.30;100940.00;5054543;28;20053;-60
2023/02/03 08:36:14;;;;;;;1.88;0.93;;;;;;;14.91;43.48;100937.66;5054374;28;20061;-59
2023/02/03 08:38:44;;;;;;;1.98;1.02;;;;;;;14.82;43.51;100931.94;5054713;28;20095;-60
2023/02/03 08:41:15;;;;;;;2.58;1.33;;;;;;;14.79;43.32;100932.16;5054411;28;20454;-58
2023/02/03 08:43:43;;;;;;;2.97;1.30;;;;;;;14.72;43.50;100932.66;5054336;28;20045;-59
2023/02/03 08:46:12;;;;;;;3.33;1.10;;;;;;;14.69;43.54;100940.91;5054218;28;20048;-59
2023/02/03 08:48:41;;;;;;;3.28;1.17;;;;;;;14.66;43.55;100944.66;5054358;28;20045;-58
2023/02/03 08:51:10;;;;;;;2.25;1.02;;;;;;;14.59;43.52;100935.28;5054268;28;20053;-59
2023/02/03 08:53:38;;;;;;;3.05;1.30;;;;;;;14.54;43.54;100949.00;5054095;28;20472;-58
2023/02/03 08:56:09;;;;;;;2.03;1.17;;;;;;;14.47;43.28;100942.31;5054207;28;20473;-59
2023/02/03 08:58:38;;;;;;;2.42;1.20;;;;;;;14.41;43.47;100936.47;5054186;28;20048;-59
2023/02/03 09:01:08;;;;;;;2.00;1.30;;;;;;;14.38;43.58;100944.69;5054365;28;20049;-59
2023/02/03 09:03:37;;;;;;;2.53;1.30;;;;;;;14.35;43.22;100944.91;5054185;28;20052;-59
2023/02/03 09:06:07;;;;;;;3.42;1.55;;;;;;;14.28;43.17;100948.00;5054237;28;20045;-59
2023/02/03 09:08:35;;;;;;;3.53;1.35;;;;;;;14.23;43.05;100944.75;5053853;28;20053;-59
2023/02/03 09:11:10;;;;;;;2.25;1.15;;;;;;;14.21;42.77;100951.19;5054277;28;20410;-58
2023/02/03 09:13:39;;;;;;;2.60;1.30;;;;;;;14.17;42.97;100949.63;5054159;28;20048;-61
2023/02/03 09:16:07;;;;;;;2.85;1.30;;;;;;;14.12;42.90;100949.94;5054422;28;20461;-58
2023/02/03 09:18:36;;;;;;;2.60;1.40;;;;;;;14.07;42.90;100937.75;5053832;28;20124;-60
2023/02/03 09:21:06;;;;;;;2.45;1.45;;;;;;;14.02;42.88;100951.50;5052896;28;20044;-60
2023/02/03 09:23:34;;;;;;;3.30;1.40;;;;;;;14.00;42.75;100956.09;5054271;28;20049;-60
2023/02/03 09:26:02;;;;;;;3.08;1.48;;;;;;;13.93;42.63;100949.38;5053779;28;20048;-58
2023/02/03 09:28:33;;;;;;;3.95;1.40;;;;;;;13.87;42.72;100947.06;5053847;28;20044;-59
2023/02/03 09:31:01;;;;;;;3.20;1.42;;;;;;;13.83;42.86;100948.25;5053703;28;20052;-59
2023/02/03 09:33:30;;;;;;;3.30;1.50;;;;;;;13.79;42.69;100941.31;5053567;28;20051;-59
2023/02/03 09:35:59;;;;;;;2.60;1.55;;;;;;;13.74;42.58;100942.50;5053456;28;20063;-59
2023/02/03 09:38:28;;;;;;;3.85;1.80;;;;;;;13.69;42.67;100933.84;5053864;28;20080;-60
2023/02/03 09:41:00;;;;;;;4.78;1.80;;;;;;;13.64;42.62;100930.63;5053444;28;20107;-58
2023/02/03 09:43:46;;;;;;;3.40;1.67;;;;;;;13.56;42.58;100919.50;5053349;28;20044;-60
2023/02/03 09:46:19;;;;;;;2.85;1.70;;;;;;;13.54;42.88;100913.38;5053036;28;20551;-58
2023/02/03 09:48:51;;;;;;;4.20;1.80;;;;;;;13.50;43.03;100909.16;5053443;28;20449;-60
2023/02/03 09:51:24;;;;;;;3.83;1.80;;;;;;;13.44;42.91;100904.19;5053018;28;20482;-61
2023/02/03 09:53:58;;;;;;;4.07;2.03;;;;;;;13.41;42.96;100904.34;5053019;28;20493;-59
2023/02/03 09:56:32;;;;;;;4.07;1.90;;;;;;;13.37;43.12;100894.81;5052925;28;20051;-61
2023/02/03 09:59:03;;;;;;;5.00;2.00;;;;;;;13.32;43.44;100891.56;5053079;28;20049;-59
2023/02/03 10:01:40;;;;;;;3.60;1.85;;;;;;;13.26;43.29;100883.88;5053184;28;20053;-59
2023/02/03 10:04:26;;;;;;;4.03;2.13;;;;;;;13.22;43.39;100874.28;5053086;28;20072;-59
2023/02/03 10:07:05;;;;;;;4.15;1.90;;;;;;;13.15;43.55;100866.63;5052830;28;20064;-58
2023/02/03 10:09:46;;;;;;;4.60;2.00;;;;;;;13.14;43.42;100853.31;5053342;28;20048;-60
2023/02/03 10:12:45;;;;;;;4.18;2.08;;;;;;;13.09;43.47;100850.91;5052994;28;20044;-59
2023/02/03 10:15:35;;;;;;;3.60;1.55;;;;;;;13.10;43.38;100843.75;5050994;28;20387;-59
2023/02/03 10:18:07;;;;;;;4.65;2.08;;;;;;;13.06;43.61;100844.91;5052578;28;20076;-61
2023/02/03 10:20:40;;;;;;;4.32;1.90;;;;;;;13.03;43.33;100837.91;5052831;28;20053;-59
2023/02/03 10:23:14;;;;;;;4.07;2.00;;;;;;;12.99;43.61;100827.47;5052710;28;20128;-60
2023/02/03 10:25:45;;;;;;;4.68;1.70;;;;;;;12.97;43.58;100822.22;5052686;28;20087;-60
2023/02/03 10:28:18;;;;;;;4.13;1.77;;;;;;;12.88;44.03;100802.22;5052881;28;20405;-60
2023/02/03 10:30:50;;;;;;;3.83;1.70;;;;;;;12.90;43.82;100807.47;5052627;28;20064;-59
2023/02/03 10:33:20;;;;;;;4.85;2.10;;;;;;;12.88;43.79;100801.34;5052557;28;20049;-59
2023/02/03 10:35:51;;;;;;;3.60;2.08;;;;;;;12.85;43.71;100799.72;5052199;28;20127;-59
2023/02/03 10:38:44;;;;;;;4.35;1.83;;;;;;;12.83;43.88;100790.03;5052721;28;20041;-60
2023/02/03 10:41:12;;;;;;;3.95;1.92;;;;;;;12.80;43.73;100792.91;5052343;28;20045;-59
2023/02/03 10:43:47;;;;;;;2.42;1.63;;;;;;;12.70;44.11;100771.19;5052287;28;20052;-59
2023/02/03 10:46:17;;;;;;;3.58;1.80;;;;;;;12.75;43.94;100782.50;5052182;28;20045;-59
2023/02/03 10:48:46;;;;;;;3.58;1.85;;;;;;;12.72;44.00;100774.66;5052248;28;20110;-59
2023/02/03 10:51:21;;;;;;;4.40;2.00;;;;;;;12.71;44.21;100772.91;5052115;28;20040;-61
2023/02/03 10:53:52;;;;;;;3.78;1.95;;;;;;;12.69;44.12;100768.63;5052114;28;20072;-59
2023/02/03 10:56:25;;;;;;;3.65;2.20;;;;;;;12.66;44.16;100760.78;5052113;28;20903;-58
2023/02/03 10:58:55;;;;;;;4.47;2.45;;;;;;;12.61;44.41;100751.22;5051927;28;20406;-58
2023/02/03 11:01:27;;;;;;;3.55;1.90;;;;;;;12.63;44.03;100747.56;5051833;28;20497;-59
2023/02/03 11:03:58;;;;;;;3.15;2.15;;;;;;;12.59;43.87;100736.22;5051741;28;20048;-58
2023/02/03 11:06:27;;;;;;;4.10;2.30;;;;;;;12.55;44.06;100735.53;5051991;28;20055;-59
2023/02/03 11:08:56;;;;;;;4.22;2.25;;;;;;;12.54;44.21;100727.59;5051979;28;20452;-58
2023/02/03 11:11:26;;;;;;;3.63;2.10;;;;;;;12.52;44.08;100730.34;5051690;28;20106;-58
2023/02/03 11:13:56;;;;;;;3.75;2.20;;;;;;;12.52;44.39;100724.16;5051548;28;20057;-58
2023/02/03 11:16:26;;;;;;;4.72;2.47;;;;;;;12.49;44.20;100719.84;5051704;28;20052;-58
2023/02/03 11:18:57;;;;;;;4.35;2.20;;;;;;;12.46;44.24;100697.78;5051704;28;20120;-58
2023/02/03 11:21:30;;;;;;;4.13;2.17;;;;;;;12.46;44.19;100708.50;5051667;28;20076;-58
2023/02/03 11:24:04;;;;;;;4.40;2.30;;;;;;;12.42;44.47;100690.88;5051618;28;20072;-58
2023/02/03 11:26:36;;;;;;;4.10;2.40;;;;;;;12.40;44.24;100684.78;5051579;28;20057;-60
2023/02/03 11:29:07;;;;;;;4.78;2.45;;;;;;;12.39;44.05;100694.59;5051439;28;20056;-59
2023/02/03 11:31:36;;;;;;;3.72;2.10;;;;;;;12.34;44.35;100683.31;5051534;28;20053;-61
2023/02/03 11:34:14;;;;;;;4.03;2.28;;;;;;;12.37;44.01;100669.78;5051172;28;20044;-58
2023/02/03 11:36:42;;;;;;;4.05;2.58;;;;;;;12.38;44.21;100657.25;5051241;28;20065;-59
2023/02/03 11:39:25;;;;;;;3.95;2.30;;;;;;;12.38;44.66;100652.75;5051264;28;20411;-59
2023/02/03 11:41:54;;;;;;;3.97;2.28;;;;;;;12.45;44.76;100659.47;5051445;28;20045;-59
2023/02/03 11:44:25;;;;;;;3.38;1.90;;;;;;;12.51;45.14;100642.16;5050875;28;20041;-59